Weather at Santa Cruz Valley Regional Hospital Heliport

Public forecast

Using degrees Fahrenheit for public forecast. Weather courtesy of forecast.io.

Closest aviation weather report (METAR) to Santa Cruz Valley Regional Hospital Heliport

Closest report is Tucson International Airport / Morris Air National Guard Base, 18.8 nm (34.9 km) N. Retrieved 2021/06/20 02:53 UTC (45 minutes ago):

KTUS 200253Z 33009KT 10SM CLR 40/03 A2972 RMK AO2 SLP001 T04000033 53007

Closest aviation forecast (TAF) to Santa Cruz Valley Regional Hospital Heliport

Closest forecast is Tucson International Airport / Morris Air National Guard Base, 18.8 nm (34.9 km) N. Retrieved 2021-06-20 00:22 UTC (3 hours ago):

TAF KTUS 192320Z 2000/2024 31011G18KT P6SM FEW120 FM200200 20005KT P6SM SCT140 FM200700 14007KT P6SM FEW140 FM202000 30011G18KT P6SM FEW120